sensor_id;sensor_type;location;lat;lon;timestamp;temperature;humidity
37896;DHT22;23733;53.254;10.430;2023-04-22T00:09:00;12.60;99.90
37896;DHT22;23733;53.254;10.430;2023-04-22T00:23:38;12.10;99.90
37896;DHT22;23733;53.254;10.430;2023-04-22T00:26:04;11.90;99.90
37896;DHT22;23733;53.254;10.430;2023-04-22T00:28:30;11.90;99.90
37896;DHT22;23733;53.254;10.430;2023-04-22T01:02:41;11.90;99.90
37896;DHT22;23733;53.254;10.430;2023-04-22T01:05:07;11.70;99.90
37896;DHT22;23733;53.254;10.430;2023-04-22T01:07:34;11.70;99.90
37896;DHT22;23733;53.254;10.430;2023-04-22T01:27:11;11.70;99.90
37896;DHT22;23733;53.254;10.430;2023-04-22T01:29:37;11.60;99.90
37896;DHT22;23733;53.254;10.430;2023-04-22T01:32:04;11.60;99.90
37896;DHT22;23733;53.254;10.430;2023-04-22T01:34:31;11.70;99.90
37896;DHT22;23733;53.254;10.430;2023-04-22T01:36:57;11.70;99.90
37896;DHT22;23733;53.254;10.430;2023-04-22T01:39:23;11.60;99.90
37896;DHT22;23733;53.254;10.430;2023-04-22T01:41:49;11.60;99.90
37896;DHT22;23733;53.254;10.430;2023-04-22T01:44:15;11.60;99.90
37896;DHT22;23733;53.254;10.430;2023-04-22T01:46:41;11.60;99.90
37896;DHT22;23733;53.254;10.430;2023-04-22T01:49:07;11.60;99.90
37896;DHT22;23733;53.254;10.430;2023-04-22T01:51:33;11.60;99.90
37896;DHT22;23733;53.254;10.430;2023-04-22T01:54:00;11.60;99.90
37896;DHT22;23733;53.254;10.430;2023-04-22T01:56:28;11.60;99.90
37896;DHT22;23733;53.254;10.430;2023-04-22T01:58:54;11.60;99.90
37896;DHT22;23733;53.254;10.430;2023-04-22T02:01:20;11.60;99.90
37896;DHT22;23733;53.254;10.430;2023-04-22T02:03:46;11.60;99.90
37896;DHT22;23733;53.254;10.430;2023-04-22T02:06:12;11.50;99.90
37896;DHT22;23733;53.254;10.430;2023-04-22T02:08:38;11.50;99.90
37896;DHT22;23733;53.254;10.430;2023-04-22T02:11:05;11.50;99.90
37896;DHT22;23733;53.254;10.430;2023-04-22T02:13:38;11.50;99.90
37896;DHT22;23733;53.254;10.430;2023-04-22T02:16:05;11.50;99.90
37896;DHT22;23733;53.254;10.430;2023-04-22T02:18:31;11.50;99.90
37896;DHT22;23733;53.254;10.430;2023-04-22T02:20:57;11.40;99.90
37896;DHT22;23733;53.254;10.430;2023-04-22T02:23:23;11.40;99.90
37896;DHT22;23733;53.254;10.430;2023-04-22T02:25:50;11.50;99.90
37896;DHT22;23733;53.254;10.430;2023-04-22T02:28:17;11.40;99.90
37896;DHT22;23733;53.254;10.430;2023-04-22T02:30:44;11.40;99.90
37896;DHT22;23733;53.254;10.430;2023-04-22T02:33:11;11.40;99.90
37896;DHT22;23733;53.254;10.430;2023-04-22T02:35:37;11.40;99.90
37896;DHT22;23733;53.254;10.430;2023-04-22T02:38:03;11.40;99.90
37896;DHT22;23733;53.254;10.430;2023-04-22T02:40:29;11.40;99.90
37896;DHT22;23733;53.254;10.430;2023-04-22T02:42:55;11.40;99.90
37896;DHT22;23733;53.254;10.430;2023-04-22T02:45:21;11.40;99.90
37896;DHT22;23733;53.254;10.430;2023-04-22T02:47:47;11.30;99.90
37896;DHT22;23733;53.254;10.430;2023-04-22T02:50:13;11.40;99.90
37896;DHT22;23733;53.254;10.430;2023-04-22T02:52:39;11.30;99.90
37896;DHT22;23733;53.254;10.430;2023-04-22T02:55:07;11.30;99.90
37896;DHT22;23733;53.254;10.430;2023-04-22T02:57:34;11.30;99.90
37896;DHT22;23733;53.254;10.430;2023-04-22T03:00:01;11.20;99.90
37896;DHT22;23733;53.254;10.430;2023-04-22T03:02:27;11.20;99.90
37896;DHT22;23733;53.254;10.430;2023-04-22T03:04:53;11.20;99.90
37896;DHT22;23733;53.254;10.430;2023-04-22T03:07:19;11.20;99.90
37896;DHT22;23733;53.254;10.430;2023-04-22T03:09:45;11.20;99.90
37896;DHT22;23733;53.254;10.430;2023-04-22T03:12:11;11.10;99.90
37896;DHT22;23733;53.254;10.430;2023-04-22T03:14:37;11.10;99.90
37896;DHT22;23733;53.254;10.430;2023-04-22T03:17:03;11.10;99.90
37896;DHT22;23733;53.254;10.430;2023-04-22T03:19:29;11.00;99.90
37896;DHT22;23733;53.254;10.430;2023-04-22T03:21:55;11.10;99.90
37896;DHT22;23733;53.254;10.430;2023-04-22T03:24:21;11.10;99.90
37896;DHT22;23733;53.254;10.430;2023-04-22T03:26:47;11.00;99.90
37896;DHT22;23733;53.254;10.430;2023-04-22T03:29:13;11.10;99.90
37896;DHT22;23733;53.254;10.430;2023-04-22T03:31:39;11.10;99.90
37896;DHT22;23733;53.254;10.430;2023-04-22T03:34:05;11.10;99.90
37896;DHT22;23733;53.254;10.430;2023-04-22T03:36:31;11.00;99.90
37896;DHT22;23733;53.254;10.430;2023-04-22T03:38:57;11.00;99.90
37896;DHT22;23733;53.254;10.430;2023-04-22T03:41:23;11.00;99.90
37896;DHT22;23733;53.254;10.430;2023-04-22T03:43:51;10.90;99.90
37896;DHT22;23733;53.254;10.430;2023-04-22T03:46:17;11.00;99.90
37896;DHT22;23733;53.254;10.430;2023-04-22T03:48:43;10.90;99.90
37896;DHT22;23733;53.254;10.430;2023-04-22T03:51:09;10.90;99.90
37896;DHT22;23733;53.254;10.430;2023-04-22T03:53:35;10.90;99.90
37896;DHT22;23733;53.254;10.430;2023-04-22T03:56:01;10.80;99.90
37896;DHT22;23733;53.254;10.430;2023-04-22T03:58:27;10.80;99.90
37896;DHT22;23733;53.254;10.430;2023-04-22T04:00:53;10.80;99.90
37896;DHT22;23733;53.254;10.430;2023-04-22T04:03:19;10.80;99.90
37896;DHT22;23733;53.254;10.430;2023-04-22T04:05:45;10.70;99.90
37896;DHT22;23733;53.254;10.430;2023-04-22T04:08:11;10.70;99.90
37896;DHT22;23733;53.254;10.430;2023-04-22T04:10:37;10.70;99.90
37896;DHT22;23733;53.254;10.430;2023-04-22T04:13:03;10.70;99.90
37896;DHT22;23733;53.254;10.430;2023-04-22T04:15:30;10.70;99.90
37896;DHT22;23733;53.254;10.430;2023-04-22T04:17:57;10.70;99.90
37896;DHT22;23733;53.254;10.430;2023-04-22T04:20:26;10.70;99.90
37896;DHT22;23733;53.254;10.430;2023-04-22T04:22:52;10.70;99.90
37896;DHT22;23733;53.254;10.430;2023-04-22T04:25:18;10.60;99.90
37896;DHT22;23733;53.254;10.430;2023-04-22T04:27:46;10.60;99.90
37896;DHT22;23733;53.254;10.430;2023-04-22T04:30:12;10.60;99.90
37896;DHT22;23733;53.254;10.430;2023-04-22T04:32:39;10.60;99.90
37896;DHT22;23733;53.254;10.430;2023-04-22T04:35:05;10.60;99.90
37896;DHT22;23733;53.254;10.430;2023-04-22T04:37:31;10.60;99.90
37896;DHT22;23733;53.254;10.430;2023-04-22T04:39:57;10.60;99.90
37896;DHT22;23733;53.254;10.430;2023-04-22T04:42:24;10.60;99.90
37896;DHT22;23733;53.254;10.430;2023-04-22T04:44:51;10.50;99.90
37896;DHT22;23733;53.254;10.430;2023-04-22T04:47:21;10.60;99.90
37896;DHT22;23733;53.254;10.430;2023-04-22T04:49:47;10.50;99.90
37896;DHT22;23733;53.254;10.430;2023-04-22T04:52:13;10.60;99.90
37896;DHT22;23733;53.254;10.430;2023-04-22T04:54:39;10.60;99.90
37896;DHT22;23733;53.254;10.430;2023-04-22T04:57:05;10.50;99.90
37896;DHT22;23733;53.254;10.430;2023-04-22T04:59:31;10.50;99.90
37896;DHT22;23733;53.254;10.430;2023-04-22T05:01:57;10.50;99.90
37896;DHT22;23733;53.254;10.430;2023-04-22T05:04:23;10.60;99.90
37896;DHT22;23733;53.254;10.430;2023-04-22T05:06:49;10.60;99.90
37896;DHT22;23733;53.254;10.430;2023-04-22T05:09:15;10.60;99.90
37896;DHT22;23733;53.254;10.430;2023-04-22T05:11:41;10.70;99.90
37896;DHT22;23733;53.254;10.430;2023-04-22T05:14:07;10.70;99.90
37896;DHT22;23733;53.254;10.430;2023-04-22T05:16:33;10.80;99.90
37896;DHT22;23733;53.254;10.430;2023-04-22T05:18:59;10.80;99.90
37896;DHT22;23733;53.254;10.430;2023-04-22T05:21:26;11.00;99.90
37896;DHT22;23733;53.254;10.430;2023-04-22T05:23:52;11.00;99.90
37896;DHT22;23733;53.254;10.430;2023-04-22T05:26:18;11.10;99.90
37896;DHT22;23733;53.254;10.430;2023-04-22T05:28:44;11.20;99.90
37896;DHT22;23733;53.254;10.430;2023-04-22T05:31:10;11.30;99.90
37896;DHT22;23733;53.254;10.430;2023-04-22T05:33:36;11.40;99.90
37896;DHT22;23733;53.254;10.430;2023-04-22T05:36:02;11.40;99.90
37896;DHT22;23733;53.254;10.430;2023-04-22T05:38:28;11.50;99.90
37896;DHT22;23733;53.254;10.430;2023-04-22T05:40:54;11.40;99.90
37896;DHT22;23733;53.254;10.430;2023-04-22T05:43:20;11.50;99.90
37896;DHT22;23733;53.254;10.430;2023-04-22T05:45:46;11.50;99.90
37896;DHT22;23733;53.254;10.430;2023-04-22T05:48:12;11.60;99.90
37896;DHT22;23733;53.254;10.430;2023-04-22T05:50:38;11.60;99.90
37896;DHT22;23733;53.254;10.430;2023-04-22T05:53:04;11.70;99.90
37896;DHT22;23733;53.254;10.430;2023-04-22T05:55:30;11.70;99.90
37896;DHT22;23733;53.254;10.430;2023-04-22T05:57:56;11.80;99.90
37896;DHT22;23733;53.254;10.430;2023-04-22T06:00:22;11.90;99.90
37896;DHT22;23733;53.254;10.430;2023-04-22T06:02:48;11.90;99.90
37896;DHT22;23733;53.254;10.430;2023-04-22T06:05:14;12.00;99.90
37896;DHT22;23733;53.254;10.430;2023-04-22T06:07:40;12.10;99.90
37896;DHT22;23733;53.254;10.430;2023-04-22T06:10:07;12.20;99.90
37896;DHT22;23733;53.254;10.430;2023-04-22T06:12:34;12.10;99.90
37896;DHT22;23733;53.254;10.430;2023-04-22T06:15:00;12.20;99.90
37896;DHT22;23733;53.254;10.430;2023-04-22T06:17:26;12.20;99.90
37896;DHT22;23733;53.254;10.430;2023-04-22T06:19:52;12.20;99.90
37896;DHT22;23733;53.254;10.430;2023-04-22T06:22:18;12.30;99.90
37896;DHT22;23733;53.254;10.430;2023-04-22T06:24:44;12.40;99.90
37896;DHT22;23733;53.254;10.430;2023-04-22T06:27:10;12.40;99.90
37896;DHT22;23733;53.254;10.430;2023-04-22T06:29:36;12.50;99.90
37896;DHT22;23733;53.254;10.430;2023-04-22T06:36:54;12.50;99.90
37896;DHT22;23733;53.254;10.430;2023-04-22T06:39:20;12.70;99.90
37896;DHT22;23733;53.254;10.430;2023-04-22T06:41:46;12.80;99.90
37896;DHT22;23733;53.254;10.430;2023-04-22T06:44:13;12.90;99.90
37896;DHT22;23733;53.254;10.430;2023-04-22T06:46:39;13.00;99.90
37896;DHT22;23733;53.254;10.430;2023-04-22T06:49:05;13.00;99.90
37896;DHT22;23733;53.254;10.430;2023-04-22T06:51:32;13.10;99.90
37896;DHT22;23733;53.254;10.430;2023-04-22T06:53:58;13.20;99.90
37896;DHT22;23733;53.254;10.430;2023-04-22T07:01:17;13.20;99.90
37896;DHT22;23733;53.254;10.430;2023-04-22T07:03:43;13.50;99.90
37896;DHT22;23733;53.254;10.430;2023-04-22T07:06:09;13.50;99.90
37896;DHT22;23733;53.254;10.430;2023-04-22T07:25:47;13.50;99.90
37896;DHT22;23733;53.254;10.430;2023-04-22T07:28:13;14.10;99.90
37896;DHT22;23733;53.254;10.430;2023-04-22T07:30:39;14.20;99.90
37896;DHT22;23733;53.254;10.430;2023-04-22T07:33:05;14.30;99.90
37896;DHT22;23733;53.254;10.430;2023-04-22T07:35:31;14.40;99.90
37896;DHT22;23733;53.254;10.430;2023-04-22T07:37:57;14.50;99.90
37896;DHT22;23733;53.254;10.430;2023-04-22T07:40:23;14.50;99.90
37896;DHT22;23733;53.254;10.430;2023-04-22T07:42:49;14.60;99.90
37896;DHT22;23733;53.254;10.430;2023-04-22T08:04:47;14.60;99.90
37896;DHT22;23733;53.254;10.430;2023-04-22T08:07:14;15.50;99.90
37896;DHT22;23733;53.254;10.430;2023-04-22T08:09:40;15.60;99.90
37896;DHT22;23733;53.254;10.430;2023-04-22T08:12:06;15.60;99.90
37896;DHT22;23733;53.254;10.430;2023-04-22T08:14:32;15.70;99.90
37896;DHT22;23733;53.254;10.430;2023-04-22T08:16:58;15.70;99.90
37896;DHT22;23733;53.254;10.430;2023-04-22T08:19:24;15.80;99.90
37896;DHT22;23733;53.254;10.430;2023-04-22T08:21:50;16.00;99.90
37896;DHT22;23733;53.254;10.430;2023-04-22T08:24:16;16.00;99.90
37896;DHT22;23733;53.254;10.430;2023-04-22T08:26:42;16.10;99.90
37896;DHT22;23733;53.254;10.430;2023-04-22T08:29:08;16.20;99.90
37896;DHT22;23733;53.254;10.430;2023-04-22T08:31:34;16.20;99.90
37896;DHT22;23733;53.254;10.430;2023-04-22T08:34:00;16.20;99.90
37896;DHT22;23733;53.254;10.430;2023-04-22T08:36:26;16.20;99.90
37896;DHT22;23733;53.254;10.430;2023-04-22T08:38:53;16.20;99.90
37896;DHT22;23733;53.254;10.430;2023-04-22T08:41:21;16.20;99.90
37896;DHT22;23733;53.254;10.430;2023-04-22T08:43:49;16.30;99.90
37896;DHT22;23733;53.254;10.430;2023-04-22T08:46:17;16.30;99.90
37896;DHT22;23733;53.254;10.430;2023-04-22T08:48:46;16.30;99.90
37896;DHT22;23733;53.254;10.430;2023-04-22T08:51:15;16.40;99.90
37896;DHT22;23733;53.254;10.430;2023-04-22T08:53:43;16.50;99.90
37896;DHT22;23733;53.254;10.430;2023-04-22T08:56:11;16.50;99.90
37896;DHT22;23733;53.254;10.430;2023-04-22T09:20:42;16.60;99.90
37896;DHT22;23733;53.254;10.430;2023-04-22T09:23:11;17.70;99.90
37896;DHT22;23733;53.254;10.430;2023-04-22T09:25:38;17.80;99.90
37896;DHT22;23733;53.254;10.430;2023-04-22T09:28:04;17.90;99.90
37896;DHT22;23733;53.254;10.430;2023-04-22T09:30:34;17.90;99.90
37896;DHT22;23733;53.254;10.430;2023-04-22T09:33:05;18.00;99.90
37896;DHT22;23733;53.254;10.430;2023-04-22T09:35:36;18.20;99.90
37896;DHT22;23733;53.254;10.430;2023-04-22T09:38:04;18.20;99.90
37896;DHT22;23733;53.254;10.430;2023-04-22T09:40:33;18.30;99.90
37896;DHT22;23733;53.254;10.430;2023-04-22T09:43:04;18.40;99.90
37896;DHT22;23733;53.254;10.430;2023-04-22T09:45:39;18.50;99.90
37896;DHT22;23733;53.254;10.430;2023-04-22T09:48:16;18.50;99.90
37896;DHT22;23733;53.254;10.430;2023-04-22T09:50:45;18.70;99.90
37896;DHT22;23733;53.254;10.430;2023-04-22T09:53:13;18.70;99.90
37896;DHT22;23733;53.254;10.430;2023-04-22T10:13:03;18.80;99.90
37896;DHT22;23733;53.254;10.430;2023-04-22T10:15:42;19.50;99.90
37896;DHT22;23733;53.254;10.430;2023-04-22T10:18:15;19.60;99.90
37896;DHT22;23733;53.254;10.430;2023-04-22T10:20:44;19.70;99.90
37896;DHT22;23733;53.254;10.430;2023-04-22T10:23:13;19.80;99.90
37896;DHT22;23733;53.254;10.430;2023-04-22T10:25:40;19.90;99.90
37896;DHT22;23733;53.254;10.430;2023-04-22T10:28:09;19.90;99.90
37896;DHT22;23733;53.254;10.430;2023-04-22T10:30:37;20.00;99.90
37896;DHT22;23733;53.254;10.430;2023-04-22T10:36:14;20.20;99.90
37896;DHT22;23733;53.254;10.430;2023-04-22T10:41:14;20.40;99.90
37896;DHT22;23733;53.254;10.430;2023-04-22T10:43:47;20.40;99.90
37896;DHT22;23733;53.254;10.430;2023-04-22T10:49:05;20.60;99.90
37896;DHT22;23733;53.254;10.430;2023-04-22T10:58:58;20.60;99.90
37896;DHT22;23733;53.254;10.430;2023-04-22T11:58:07;21.00;99.90
37896;DHT22;23733;53.254;10.430;2023-04-22T12:00:36;22.30;99.90
37896;DHT22;23733;53.254;10.430;2023-04-22T13:33:30;22.30;99.90
37896;DHT22;23733;53.254;10.430;2023-04-22T13:35:56;22.40;99.90
37896;DHT22;23733;53.254;10.430;2023-04-22T13:38:22;22.40;99.90
37896;DHT22;23733;53.254;10.430;2023-04-22T13:40:48;22.40;99.90
37896;DHT22;23733;53.254;10.430;2023-04-22T13:43:14;22.40;99.90
37896;DHT22;23733;53.254;10.430;2023-04-22T13:45:40;22.50;99.90
37896;DHT22;23733;53.254;10.430;2023-04-22T13:48:07;22.50;99.90
37896;DHT22;23733;53.254;10.430;2023-04-22T13:50:33;22.60;99.90
37896;DHT22;23733;53.254;10.430;2023-04-22T13:52:59;22.50;99.90
37896;DHT22;23733;53.254;10.430;2023-04-22T14:00:18;22.50;99.90
37896;DHT22;23733;53.254;10.430;2023-04-22T14:02:45;22.40;99.90
37896;DHT22;23733;53.254;10.430;2023-04-22T14:05:11;22.40;99.90
37896;DHT22;23733;53.254;10.430;2023-04-22T14:07:37;22.40;99.90
37896;DHT22;23733;53.254;10.430;2023-04-22T14:10:03;22.40;99.90
37896;DHT22;23733;53.254;10.430;2023-04-22T14:12:30;22.30;99.90
37896;DHT22;23733;53.254;10.430;2023-04-22T14:14:56;22.30;99.90
37896;DHT22;23733;53.254;10.430;2023-04-22T14:17:22;22.30;99.90
37896;DHT22;23733;53.254;10.430;2023-04-22T14:19:48;22.30;99.90
37896;DHT22;23733;53.254;10.430;2023-04-22T14:22:14;22.30;99.90
37896;DHT22;23733;53.254;10.430;2023-04-22T14:24:40;22.20;99.90
37896;DHT22;23733;53.254;10.430;2023-04-22T15:35:26;22.20;99.90
37896;DHT22;23733;53.254;10.430;2023-04-22T15:37:52;22.10;99.90
37896;DHT22;23733;53.254;10.430;2023-04-22T15:40:18;22.00;99.90
37896;DHT22;23733;53.254;10.430;2023-04-22T15:42:44;21.90;99.90
37896;DHT22;23733;53.254;10.430;2023-04-22T15:45:10;21.90;99.90
37896;DHT22;23733;53.254;10.430;2023-04-22T15:47:36;21.80;99.90
37896;DHT22;23733;53.254;10.430;2023-04-22T15:50:04;21.90;99.90
37896;DHT22;23733;53.254;10.430;2023-04-22T15:52:34;21.80;99.90
37896;DHT22;23733;53.254;10.430;2023-04-22T15:55:00;21.90;99.90
37896;DHT22;23733;53.254;10.430;2023-04-22T15:57:27;21.90;99.90
37896;DHT22;23733;53.254;10.430;2023-04-22T15:59:53;21.90;99.90
37896;DHT22;23733;53.254;10.430;2023-04-22T16:02:19;21.80;99.90
37896;DHT22;23733;53.254;10.430;2023-04-22T16:04:45;21.80;99.90
37896;DHT22;23733;53.254;10.430;2023-04-22T16:24:15;21.70;99.90
37896;DHT22;23733;53.254;10.430;2023-04-22T16:26:41;21.30;99.90
37896;DHT22;23733;53.254;10.430;2023-04-22T16:29:07;21.30;99.90
37896;DHT22;23733;53.254;10.430;2023-04-22T16:31:33;21.30;99.90
37896;DHT22;23733;53.254;10.430;2023-04-22T16:33:59;21.30;99.90
37896;DHT22;23733;53.254;10.430;2023-04-22T16:36:25;21.30;99.90
37896;DHT22;23733;53.254;10.430;2023-04-22T16:38:51;21.30;99.90
37896;DHT22;23733;53.254;10.430;2023-04-22T16:41:19;21.30;99.90
37896;DHT22;23733;53.254;10.430;2023-04-22T16:43:45;21.30;99.90
37896;DHT22;23733;53.254;10.430;2023-04-22T16:46:11;21.30;99.90
37896;DHT22;23733;53.254;10.430;2023-04-22T16:48:37;21.30;99.90
37896;DHT22;23733;53.254;10.430;2023-04-22T16:51:03;21.30;99.90
37896;DHT22;23733;53.254;10.430;2023-04-22T16:53:29;21.30;99.90
37896;DHT22;23733;53.254;10.430;2023-04-22T16:55:56;21.20;99.90
37896;DHT22;23733;53.254;10.430;2023-04-22T16:58:22;21.20;99.90
37896;DHT22;23733;53.254;10.430;2023-04-22T17:00:48;21.20;99.90
37896;DHT22;23733;53.254;10.430;2023-04-22T17:03:14;21.20;99.90
37896;DHT22;23733;53.254;10.430;2023-04-22T17:05:40;21.10;99.90
37896;DHT22;23733;53.254;10.430;2023-04-22T17:08:06;21.20;99.90
37896;DHT22;23733;53.254;10.430;2023-04-22T17:10:33;21.10;99.90
37896;DHT22;23733;53.254;10.430;2023-04-22T17:12:59;21.10;99.90
37896;DHT22;23733;53.254;10.430;2023-04-22T17:15:25;21.10;99.90
37896;DHT22;23733;53.254;10.430;2023-04-22T17:17:51;21.00;99.90
37896;DHT22;23733;53.254;10.430;2023-04-22T17:20:17;21.00;99.90
37896;DHT22;23733;53.254;10.430;2023-04-22T17:22:43;21.00;99.90
37896;DHT22;23733;53.254;10.430;2023-04-22T17:25:09;21.00;99.90
37896;DHT22;23733;53.254;10.430;2023-04-22T17:27:35;20.90;99.90
37896;DHT22;23733;53.254;10.430;2023-04-22T17:30:02;20.90;99.90
37896;DHT22;23733;53.254;10.430;2023-04-22T17:32:28;20.90;99.90
37896;DHT22;23733;53.254;10.430;2023-04-22T17:34:54;20.90;99.90
37896;DHT22;23733;53.254;10.430;2023-04-22T17:37:20;20.80;99.90
37896;DHT22;23733;53.254;10.430;2023-04-22T17:39:46;20.80;99.90
37896;DHT22;23733;53.254;10.430;2023-04-22T17:42:12;20.80;99.90
37896;DHT22;23733;53.254;10.430;2023-04-22T17:44:38;20.80;99.90
37896;DHT22;23733;53.254;10.430;2023-04-22T17:47:04;20.70;99.90
37896;DHT22;23733;53.254;10.430;2023-04-22T17:49:30;20.60;99.90
37896;DHT22;23733;53.254;10.430;2023-04-22T17:51:56;20.60;99.90
37896;DHT22;23733;53.254;10.430;2023-04-22T17:54:22;20.60;99.90
37896;DHT22;23733;53.254;10.430;2023-04-22T17:56:48;20.60;99.90
37896;DHT22;23733;53.254;10.430;2023-04-22T17:59:14;20.50;99.90
37896;DHT22;23733;53.254;10.430;2023-04-22T18:01:40;20.50;99.90
37896;DHT22;23733;53.254;10.430;2023-04-22T18:04:07;20.50;99.90
37896;DHT22;23733;53.254;10.430;2023-04-22T18:06:33;20.40;99.90
37896;DHT22;23733;53.254;10.430;2023-04-22T18:08:59;20.40;99.90
37896;DHT22;23733;53.254;10.430;2023-04-22T18:11:25;20.40;99.90
37896;DHT22;23733;53.254;10.430;2023-04-22T18:13:53;20.30;99.90
37896;DHT22;23733;53.254;10.430;2023-04-22T18:16:19;20.30;99.90
37896;DHT22;23733;53.254;10.430;2023-04-22T18:18:45;20.30;99.90
37896;DHT22;23733;53.254;10.430;2023-04-22T18:21:11;20.20;99.90
37896;DHT22;23733;53.254;10.430;2023-04-22T18:23:38;20.20;99.90
37896;DHT22;23733;53.254;10.430;2023-04-22T18:26:04;20.10;99.90
37896;DHT22;23733;53.254;10.430;2023-04-22T18:28:38;20.10;99.90
37896;DHT22;23733;53.254;10.430;2023-04-22T18:31:09;20.10;99.90
37896;DHT22;23733;53.254;10.430;2023-04-22T18:33:35;20.10;99.90
37896;DHT22;23733;53.254;10.430;2023-04-22T18:36:01;20.00;99.90
37896;DHT22;23733;53.254;10.430;2023-04-22T18:38:27;20.00;99.90
37896;DHT22;23733;53.254;10.430;2023-04-22T18:40:53;19.90;99.90
37896;DHT22;23733;53.254;10.430;2023-04-22T18:43:19;19.90;99.90
37896;DHT22;23733;53.254;10.430;2023-04-22T18:45:45;19.90;99.90
37896;DHT22;23733;53.254;10.430;2023-04-22T18:48:11;19.80;99.90
37896;DHT22;23733;53.254;10.430;2023-04-22T18:50:37;19.80;99.90
37896;DHT22;23733;53.254;10.430;2023-04-22T18:53:03;19.80;99.90
37896;DHT22;23733;53.254;10.430;2023-04-22T18:55:29;19.80;99.90
37896;DHT22;23733;53.254;10.430;2023-04-22T18:57:55;19.70;99.90
37896;DHT22;23733;53.254;10.430;2023-04-22T19:00:22;19.70;99.90
37896;DHT22;23733;53.254;10.430;2023-04-22T19:02:48;19.70;99.90
37896;DHT22;23733;53.254;10.430;2023-04-22T19:05:14;19.70;99.90
37896;DHT22;23733;53.254;10.430;2023-04-22T19:07:40;19.60;99.90
37896;DHT22;23733;53.254;10.430;2023-04-22T19:10:07;19.60;99.90
37896;DHT22;23733;53.254;10.430;2023-04-22T19:12:33;19.60;99.90
37896;DHT22;23733;53.254;10.430;2023-04-22T19:14:59;19.60;99.90
37896;DHT22;23733;53.254;10.430;2023-04-22T19:17:26;19.50;99.90
37896;DHT22;23733;53.254;10.430;2023-04-22T19:19:52;19.50;99.90
37896;DHT22;23733;53.254;10.430;2023-04-22T19:22:18;19.50;99.90
37896;DHT22;23733;53.254;10.430;2023-04-22T19:24:45;19.50;99.90
37896;DHT22;23733;53.254;10.430;2023-04-22T19:27:11;19.50;99.90
37896;DHT22;23733;53.254;10.430;2023-04-22T19:29:38;19.50;99.90
37896;DHT22;23733;53.254;10.430;2023-04-22T19:32:05;19.40;99.90
37896;DHT22;23733;53.254;10.430;2023-04-22T19:34:32;19.40;99.90
37896;DHT22;23733;53.254;10.430;2023-04-22T19:36:58;19.40;99.90
37896;DHT22;23733;53.254;10.430;2023-04-22T19:41:50;19.40;99.90
37896;DHT22;23733;53.254;10.430;2023-04-22T19:44:16;19.30;99.90
37896;DHT22;23733;53.254;10.430;2023-04-22T19:46:42;19.30;99.90
37896;DHT22;23733;53.254;10.430;2023-04-22T19:49:08;19.30;99.90
37896;DHT22;23733;53.254;10.430;2023-04-22T19:51:35;19.20;99.90
37896;DHT22;23733;53.254;10.430;2023-04-22T19:54:03;19.20;99.90
37896;DHT22;23733;53.254;10.430;2023-04-22T19:56:31;19.20;99.90
37896;DHT22;23733;53.254;10.430;2023-04-22T19:58:58;19.20;99.90
37896;DHT22;23733;53.254;10.430;2023-04-22T20:01:24;19.20;99.90
37896;DHT22;23733;53.254;10.430;2023-04-22T20:03:50;19.20;99.90
37896;DHT22;23733;53.254;10.430;2023-04-22T20:06:17;19.20;99.90
37896;DHT22;23733;53.254;10.430;2023-04-22T20:08:43;19.20;99.90
37896;DHT22;23733;53.254;10.430;2023-04-22T20:11:10;19.10;99.90
37896;DHT22;23733;53.254;10.430;2023-04-22T20:13:36;19.10;99.90
37896;DHT22;23733;53.254;10.430;2023-04-22T20:16:04;19.10;99.90
37896;DHT22;23733;53.254;10.430;2023-04-22T20:18:31;19.10;99.90
37896;DHT22;23733;53.254;10.430;2023-04-22T20:20:57;19.10;99.90
37896;DHT22;23733;53.254;10.430;2023-04-22T20:23:24;19.00;99.90
37896;DHT22;23733;53.254;10.430;2023-04-22T20:25:53;19.00;99.90
37896;DHT22;23733;53.254;10.430;2023-04-22T20:28:49;19.00;99.90
37896;DHT22;23733;53.254;10.430;2023-04-22T20:31:17;19.00;99.90
37896;DHT22;23733;53.254;10.430;2023-04-22T20:33:45;19.00;99.90
37896;DHT22;23733;53.254;10.430;2023-04-22T20:36:12;18.90;99.90
37896;DHT22;23733;53.254;10.430;2023-04-22T20:38:42;18.90;99.90
37896;DHT22;23733;53.254;10.430;2023-04-22T20:41:12;18.80;99.90
37896;DHT22;23733;53.254;10.430;2023-04-22T20:43:38;18.80;99.90
37896;DHT22;23733;53.254;10.430;2023-04-22T20:46:04;18.80;99.90
37896;DHT22;23733;53.254;10.430;2023-04-22T20:48:30;18.80;99.90
37896;DHT22;23733;53.254;10.430;2023-04-22T20:50:56;18.80;99.90
37896;DHT22;23733;53.254;10.430;2023-04-22T20:53:22;18.70;99.90
37896;DHT22;23733;53.254;10.430;2023-04-22T20:55:49;18.70;99.90
37896;DHT22;23733;53.254;10.430;2023-04-22T20:58:15;18.70;99.90
37896;DHT22;23733;53.254;10.430;2023-04-22T21:00:42;18.70;99.90
37896;DHT22;23733;53.254;10.430;2023-04-22T21:03:08;18.60;99.90
37896;DHT22;23733;53.254;10.430;2023-04-22T21:05:34;18.60;99.90
37896;DHT22;23733;53.254;10.430;2023-04-22T21:08:22;18.50;99.90
37896;DHT22;23733;53.254;10.430;2023-04-22T21:10:50;18.50;99.90
37896;DHT22;23733;53.254;10.430;2023-04-22T21:13:17;18.50;99.90
37896;DHT22;23733;53.254;10.430;2023-04-22T21:16:00;18.50;99.90
37896;DHT22;23733;53.254;10.430;2023-04-22T21:18:27;18.50;99.90
37896;DHT22;23733;53.254;10.430;2023-04-22T21:20:55;18.50;99.90
37896;DHT22;23733;53.254;10.430;2023-04-22T21:23:24;18.50;99.90
37896;DHT22;23733;53.254;10.430;2023-04-22T21:25:56;18.40;99.90
37896;DHT22;23733;53.254;10.430;2023-04-22T21:28:22;18.40;99.90
37896;DHT22;23733;53.254;10.430;2023-04-22T21:30:48;18.40;99.90
